createdAt,value
2018-08-28T00:00:09.123Z,3.40
2018-08-28T00:02:38.124Z,3.63
2018-08-28T00:05:07.863Z,3.00
2018-08-28T00:07:37.483Z,3.30
2018-08-28T00:10:07.083Z,3.27
2018-08-28T00:12:36.763Z,3.30
2018-08-28T00:15:06.585Z,3.10
2018-08-28T00:17:35.963Z,3.20
2018-08-28T00:20:05.827Z,3.40
2018-08-28T00:22:35.263Z,3.17
2018-08-28T00:25:04.684Z,3.33
2018-08-28T00:27:33.924Z,3.33
2018-08-28T00:30:03.263Z,3.30
2018-08-28T00:32:32.364Z,3.10
2018-08-28T00:35:01.504Z,3.40
2018-08-28T00:37:31.043Z,3.57
2018-08-28T00:40:00.063Z,3.23
2018-08-28T00:42:29.323Z,3.20
2018-08-28T00:44:58.541Z,3.00
2018-08-28T00:47:27.600Z,3.87
2018-08-28T00:49:57.676Z,3.53
2018-08-28T00:52:26.865Z,3.40
2018-08-28T00:54:56.001Z,3.20
2018-08-28T00:57:25.620Z,3.30
2018-08-28T00:59:54.960Z,3.57
2018-08-28T01:02:24.482Z,3.50
2018-08-28T01:07:27.341Z,3.77
2018-08-28T01:09:56.768Z,3.60
2018-08-28T01:12:25.902Z,3.70
2018-08-28T01:14:54.960Z,3.67
2018-08-28T01:17:23.980Z,3.90
2018-08-28T01:19:53.120Z,3.70
2018-08-28T01:22:22.363Z,3.60
2018-08-28T01:24:52.000Z,4.20
2018-08-28T01:27:21.180Z,3.67
2018-08-28T01:29:50.140Z,3.83
2018-08-28T01:32:19.280Z,3.63
2018-08-28T01:34:48.621Z,4.07
2018-08-28T01:37:17.721Z,3.77
2018-08-28T01:39:46.960Z,3.50
2018-08-28T01:42:20.201Z,3.80
2018-08-28T01:47:23.720Z,3.80
2018-08-28T01:49:53.260Z,3.43
2018-08-28T01:52:22.165Z,3.97
2018-08-28T01:54:51.480Z,3.90
2018-08-28T01:57:21.020Z,4.00
2018-08-28T01:59:50.440Z,3.70
2018-08-28T02:02:19.801Z,4.00
2018-08-28T02:04:50.150Z,4.23
2018-08-28T02:07:19.327Z,4.10
2018-08-28T02:09:48.990Z,4.20
2018-08-28T02:12:18.287Z,4.23
2018-08-28T02:14:47.426Z,4.10
2018-08-28T02:17:16.550Z,4.17
2018-08-28T02:19:45.851Z,4.30
2018-08-28T02:22:15.306Z,4.13
2018-08-28T02:24:44.225Z,3.87
2018-08-28T02:27:13.601Z,3.97
2018-08-28T02:29:42.523Z,3.97
2018-08-28T02:32:11.683Z,3.83
2018-08-28T02:34:41.343Z,3.90
2018-08-28T02:37:10.684Z,4.20
2018-08-28T02:39:40.223Z,3.83
2018-08-28T02:42:09.482Z,4.07
2018-08-28T02:44:38.726Z,4.53
2018-08-28T02:47:07.642Z,4.20
2018-08-28T02:49:36.926Z,3.87
2018-08-28T02:52:06.185Z,3.90
2018-08-28T02:54:35.561Z,4.57
2018-08-28T02:57:05.022Z,4.30
2018-08-28T02:59:34.003Z,4.40
2018-08-28T03:02:02.960Z,4.80
2018-08-28T03:04:32.360Z,4.30
2018-08-28T03:07:05.646Z,4.30
2018-08-28T03:09:35.040Z,4.33
2018-08-28T03:12:04.468Z,4.70
2018-08-28T03:14:33.521Z,4.40
2018-08-28T03:17:03.400Z,4.70
2018-08-28T03:19:32.722Z,4.77
2018-08-28T03:22:01.841Z,4.57
2018-08-28T03:24:30.979Z,5.03
2018-08-28T03:27:00.240Z,4.37
2018-08-28T03:29:29.260Z,4.70
2018-08-28T03:31:58.440Z,4.90
2018-08-28T03:34:27.500Z,4.63
2018-08-28T03:36:57.021Z,4.73
2018-08-28T03:39:26.559Z,4.77
2018-08-28T03:41:55.740Z,4.47
2018-08-28T03:44:24.884Z,4.73
2018-08-28T03:46:54.765Z,5.20
2018-08-28T03:49:24.200Z,4.83
2018-08-28T03:51:53.329Z,4.80
2018-08-28T03:54:22.660Z,4.63
2018-08-28T03:56:51.643Z,4.93
2018-08-28T03:59:20.681Z,4.57
2018-08-28T04:01:49.982Z,4.50
2018-08-28T04:04:19.382Z,4.83
2018-08-28T04:06:48.705Z,4.00
2018-08-28T04:09:17.802Z,4.37
2018-08-28T04:11:47.282Z,4.60
2018-08-28T04:14:16.303Z,3.93
2018-08-28T04:16:47.642Z,3.70
2018-08-28T04:19:16.967Z,4.13
2018-08-28T04:21:46.281Z,4.07
2018-08-28T04:24:15.521Z,4.60
2018-08-28T04:26:44.622Z,4.40
2018-08-28T04:29:13.762Z,5.10
2018-08-28T04:31:42.803Z,4.83
2018-08-28T04:34:12.302Z,4.20
2018-08-28T04:36:41.743Z,4.50
2018-08-28T04:39:10.764Z,4.90
2018-08-28T04:41:40.175Z,4.20
2018-08-28T04:44:09.341Z,4.50
2018-08-28T04:46:42.965Z,4.60
2018-08-28T04:49:12.043Z,4.13
2018-08-28T04:51:41.163Z,3.97
2018-08-28T04:54:10.271Z,4.33
2018-08-28T05:09:00.323Z,3.97
2018-08-28T05:11:29.501Z,4.00
2018-08-28T05:16:31.940Z,3.43
2018-08-28T05:19:01.103Z,3.50
2018-08-28T05:21:30.300Z,3.40
2018-08-28T05:23:59.641Z,3.40
2018-08-28T05:26:28.880Z,3.53
2018-08-28T05:28:58.620Z,3.30
2018-08-28T05:31:28.060Z,4.00
2018-08-28T05:33:57.441Z,3.90
2018-08-28T05:36:26.343Z,3.90
2018-08-28T05:38:56.403Z,3.90
2018-08-28T05:41:25.485Z,3.93
2018-08-28T05:43:54.605Z,3.60
2018-08-28T05:46:23.645Z,3.93
2018-08-28T05:48:52.867Z,3.87
2018-08-28T05:51:22.463Z,4.07
2018-08-28T05:53:51.541Z,3.52
2018-08-28T05:56:20.925Z,3.83
2018-08-28T05:58:49.941Z,4.25
2018-08-28T06:01:19.411Z,3.98
2018-08-28T06:03:48.585Z,3.87
2018-08-28T06:06:22.366Z,4.00
2018-08-28T06:08:51.545Z,3.83
2018-08-28T06:11:20.445Z,4.30
2018-08-28T06:13:49.706Z,4.00
2018-08-28T06:16:18.801Z,4.10
2018-08-28T06:18:47.653Z,4.17
2018-08-28T06:21:16.426Z,4.00
2018-08-28T06:23:45.114Z,4.05
2018-08-28T06:26:14.088Z,4.05
2018-08-28T06:28:43.245Z,4.20
2018-08-28T06:31:18.787Z,4.20
2018-08-28T06:33:50.687Z,4.10
2018-08-28T06:36:19.388Z,3.62
2018-08-28T06:38:48.070Z,3.83
2018-08-28T06:41:21.172Z,4.17
2018-08-28T06:43:50.533Z,4.17
2018-08-28T06:46:19.903Z,4.25
2018-08-28T06:48:53.384Z,4.08
2018-08-28T06:51:22.502Z,4.05
2018-08-28T06:53:51.742Z,4.25
2018-08-28T06:56:25.022Z,4.33
2018-08-28T06:58:54.124Z,4.50
2018-08-28T07:01:23.301Z,4.05
2018-08-28T07:03:52.597Z,4.25
2018-08-28T07:06:22.422Z,4.72
2018-08-28T07:08:51.588Z,3.98
2018-08-28T07:11:20.701Z,4.10
2018-08-28T07:13:50.142Z,3.87
2018-08-28T07:16:18.966Z,4.20
2018-08-28T07:18:52.354Z,4.25
2018-08-28T07:21:21.309Z,4.60
2018-08-28T07:23:50.202Z,3.65
2018-08-28T07:26:19.281Z,4.33
2018-08-28T07:28:48.202Z,3.98
2018-08-28T07:31:17.225Z,4.58
2018-08-28T07:33:46.461Z,4.40
2018-08-28T07:36:15.661Z,4.10
2018-08-28T07:38:45.164Z,3.60
2018-08-28T07:41:14.201Z,4.03
2018-08-28T07:43:43.283Z,3.47
2018-08-28T07:46:12.641Z,3.70
2018-08-28T07:48:41.661Z,3.80
2018-08-28T07:51:15.261Z,3.80
2018-08-28T07:53:44.347Z,3.95
2018-08-28T07:56:13.503Z,3.98
2018-08-28T07:58:42.861Z,3.90
2018-08-28T08:01:12.003Z,4.20
2018-08-28T08:03:41.702Z,4.55
2018-08-28T08:06:10.741Z,4.03
2018-08-28T08:08:39.901Z,3.92
2018-08-28T08:11:09.041Z,4.35
2018-08-28T08:13:38.061Z,4.55
2018-08-28T08:16:07.430Z,4.78
2018-08-28T08:18:37.205Z,5.58
2018-08-28T08:21:06.222Z,4.60
2018-08-28T08:23:35.281Z,4.95
2018-08-28T08:26:04.461Z,5.22
2018-08-28T08:28:33.481Z,5.45
2018-08-28T08:31:03.381Z,5.53
2018-08-28T08:33:32.781Z,5.10
2018-08-28T08:36:01.869Z,5.55
2018-08-28T08:38:30.980Z,4.90
2018-08-28T08:41:00.104Z,5.00
2018-08-28T08:43:29.627Z,5.35
2018-08-28T08:45:58.991Z,5.40
2018-08-28T08:48:28.544Z,5.17
2018-08-28T08:50:57.683Z,4.72
2018-08-28T08:53:27.432Z,5.00
2018-08-28T08:55:56.782Z,5.40
2018-08-28T08:58:25.981Z,5.40
2018-08-28T09:00:55.286Z,5.37
2018-08-28T09:03:24.342Z,5.05
2018-08-28T09:05:54.299Z,5.53
2018-08-28T09:08:23.742Z,4.80
2018-08-28T09:10:53.182Z,5.22
2018-08-28T09:13:22.529Z,5.42
2018-08-28T09:15:51.842Z,5.08
2018-08-28T09:18:25.663Z,4.20
2018-08-28T09:20:54.861Z,4.22
2018-08-28T09:23:24.043Z,4.12
2018-08-28T09:25:53.322Z,3.52
2018-08-28T09:28:22.462Z,3.50
2018-08-28T09:30:51.442Z,3.55
2018-08-28T09:33:20.617Z,3.65
2018-08-28T09:35:49.982Z,3.67
2018-08-28T09:38:19.152Z,3.70
2018-08-28T09:40:48.262Z,3.42
2018-08-28T09:43:17.842Z,3.40
2018-08-28T09:45:46.942Z,3.62
2018-08-28T09:48:16.511Z,3.02
2018-08-28T09:50:45.695Z,3.22
2018-08-28T09:53:14.802Z,2.90
2018-08-28T09:55:44.064Z,3.65
2018-08-28T09:58:13.082Z,3.10
2018-08-28T10:00:47.763Z,2.75
2018-08-28T10:03:16.886Z,2.98
2018-08-28T10:05:45.983Z,3.08
2018-08-28T10:08:15.085Z,2.72
2018-08-28T10:10:44.030Z,2.80
2018-08-28T10:13:13.204Z,2.62
2018-08-28T10:15:42.143Z,2.95
2018-08-28T10:18:11.205Z,2.98
2018-08-28T10:20:40.337Z,2.95
2018-08-28T10:23:09.381Z,3.12
2018-08-28T10:25:43.202Z,2.70
2018-08-28T10:28:12.201Z,3.50
2018-08-28T10:30:41.921Z,2.72
2018-08-28T10:33:11.400Z,2.83
2018-08-28T10:35:40.302Z,2.85
2018-08-28T10:38:09.457Z,3.02
2018-08-28T10:40:39.081Z,2.90
2018-08-28T10:43:08.240Z,2.77
2018-08-28T10:45:37.341Z,2.70
2018-08-28T10:48:10.821Z,3.10
2018-08-28T10:50:40.002Z,2.70
2018-08-28T10:53:09.181Z,2.60
2018-08-28T10:55:38.622Z,2.98
2018-08-28T10:58:07.740Z,2.70
2018-08-28T11:00:36.703Z,2.60
2018-08-28T11:03:05.821Z,2.75
2018-08-28T11:05:35.382Z,2.90
2018-08-28T11:08:04.529Z,2.83
2018-08-28T11:10:33.641Z,2.90
2018-08-28T11:13:07.261Z,3.00
2018-08-28T11:15:36.923Z,3.10
2018-08-28T11:18:06.281Z,2.87
2018-08-28T11:20:35.441Z,2.80
2018-08-28T11:23:04.566Z,3.47
2018-08-28T11:25:33.622Z,2.65
2018-08-28T11:28:02.601Z,2.85
2018-08-28T11:30:31.842Z,2.90
2018-08-28T11:33:01.041Z,2.92
2018-08-28T11:35:30.243Z,3.10
2018-08-28T11:37:59.441Z,3.00
2018-08-28T11:40:28.523Z,2.98
2018-08-28T11:42:57.643Z,2.98
2018-08-28T11:45:27.022Z,2.75
2018-08-28T11:47:56.483Z,2.83
2018-08-28T11:50:25.663Z,2.85
2018-08-28T11:52:54.961Z,2.77
2018-08-28T11:55:28.264Z,2.95
2018-08-28T11:57:57.581Z,2.98
2018-08-28T12:00:27.140Z,2.80
2018-08-28T12:02:56.364Z,3.20
2018-08-28T12:05:25.580Z,2.90
2018-08-28T12:07:55.242Z,2.95
2018-08-28T12:10:24.563Z,3.05
2018-08-28T12:12:53.769Z,3.22
2018-08-28T12:15:23.166Z,2.92
2018-08-28T12:17:56.364Z,2.92
2018-08-28T12:20:30.273Z,3.40
2018-08-28T12:22:59.403Z,3.40
2018-08-28T12:25:28.563Z,3.50
2018-08-28T12:27:57.644Z,3.60
2018-08-28T12:30:27.264Z,3.33
2018-08-28T12:32:56.544Z,3.17
2018-08-28T12:35:25.643Z,3.20
2018-08-28T12:37:55.143Z,3.47
2018-08-28T12:40:24.224Z,3.40
2018-08-28T12:42:54.778Z,3.40
2018-08-28T12:45:24.204Z,3.60
2018-08-28T12:47:53.346Z,3.58
2018-08-28T12:50:22.702Z,3.42
2018-08-28T12:52:51.883Z,3.50
2018-08-28T12:55:25.504Z,3.80
2018-08-28T12:57:54.622Z,4.10
2018-08-28T13:00:24.637Z,3.80
2018-08-28T13:02:54.072Z,4.03
2018-08-28T13:05:23.412Z,4.08
2018-08-28T13:07:52.426Z,4.35
2018-08-28T13:10:21.645Z,4.12
2018-08-28T13:12:51.086Z,3.62
2018-08-28T13:15:20.387Z,3.80
2018-08-28T13:17:49.693Z,4.35
2018-08-28T13:20:18.765Z,4.25
2018-08-28T13:22:47.903Z,3.90
2018-08-28T13:25:17.126Z,4.08
2018-08-28T13:27:46.163Z,4.10
2018-08-28T13:30:15.324Z,4.08
2018-08-28T13:32:44.983Z,4.30
2018-08-28T13:35:14.064Z,4.30
2018-08-28T13:37:43.043Z,4.20
2018-08-28T13:40:12.859Z,4.67
2018-08-28T13:42:42.203Z,4.08
2018-08-28T13:45:11.343Z,4.08
2018-08-28T13:47:40.403Z,4.00
2018-08-28T13:50:09.743Z,4.12
2018-08-28T13:52:38.870Z,3.80
2018-08-28T13:55:08.105Z,4.22
2018-08-28T13:57:37.044Z,3.85
2018-08-28T14:00:06.200Z,4.70
2018-08-28T14:02:35.128Z,4.90
2018-08-28T14:05:04.064Z,4.62
2018-08-28T14:07:33.307Z,4.75
2018-08-28T14:10:02.419Z,4.23
2018-08-28T14:12:35.587Z,4.17
2018-08-28T14:15:04.513Z,4.27
2018-08-28T14:17:33.726Z,4.53
2018-08-28T14:20:03.208Z,4.15
2018-08-28T14:22:32.365Z,4.60
2018-08-28T14:25:01.398Z,4.33
2018-08-28T14:27:30.625Z,4.55
2018-08-28T14:29:59.646Z,4.42
2018-08-28T14:32:28.846Z,4.35
2018-08-28T14:34:58.328Z,4.30
2018-08-28T14:37:27.524Z,4.00
2018-08-28T14:39:56.784Z,3.63
2018-08-28T14:42:26.487Z,3.73
2018-08-28T14:44:56.386Z,4.00
2018-08-28T14:47:25.580Z,3.90
2018-08-28T14:49:54.880Z,4.10
2018-08-28T14:52:24.299Z,4.00
2018-08-28T14:54:53.439Z,4.20
2018-08-28T14:57:22.598Z,4.17
2018-08-28T14:59:51.960Z,4.43
2018-08-28T15:02:21.162Z,4.53
2018-08-28T15:04:50.305Z,4.43
2018-08-28T15:07:19.406Z,4.23
2018-08-28T15:09:49.126Z,4.20
2018-08-28T15:12:18.215Z,4.10
2018-08-28T15:14:47.646Z,3.87
2018-08-28T15:17:16.865Z,3.90
2018-08-28T15:19:46.167Z,4.00
2018-08-28T15:22:15.229Z,4.03
2018-08-28T15:24:44.429Z,4.40
2018-08-28T15:27:13.629Z,4.37
2018-08-28T15:29:42.546Z,4.30
2018-08-28T15:32:11.685Z,4.17
2018-08-28T15:34:41.346Z,4.10
2018-08-28T15:37:10.609Z,4.70
2018-08-28T15:39:39.850Z,4.47
2018-08-28T15:42:08.947Z,4.73
2018-08-28T15:44:38.006Z,3.97
2018-08-28T15:47:07.568Z,4.43
2018-08-28T15:49:36.706Z,4.60
2018-08-28T15:52:05.808Z,4.50
2018-08-28T15:54:35.246Z,4.23
2018-08-28T15:57:04.327Z,4.60
2018-08-28T15:59:33.966Z,4.30
2018-08-28T16:02:03.597Z,4.37
2018-08-28T16:04:33.041Z,4.33
2018-08-28T16:07:02.181Z,3.97
2018-08-28T16:12:05.109Z,3.97
2018-08-28T16:14:34.702Z,4.27
2018-08-28T16:17:03.742Z,4.57
2018-08-28T16:19:33.160Z,4.10
2018-08-28T16:22:03.561Z,4.43
2018-08-28T16:24:32.561Z,4.77
2018-08-28T16:27:01.688Z,4.20
2018-08-28T16:29:30.800Z,4.20
2018-08-28T16:31:59.781Z,4.40
2018-08-28T16:34:28.889Z,4.10
2018-08-28T16:36:58.689Z,3.83
2018-08-28T16:39:27.826Z,3.93
2018-08-28T16:41:57.285Z,4.17
2018-08-28T16:44:26.196Z,3.90
2018-08-28T16:46:55.372Z,3.80
2018-08-28T16:49:24.302Z,3.97
2018-08-28T16:51:53.343Z,3.77
2018-08-28T16:54:22.905Z,4.13
2018-08-28T16:56:52.245Z,4.20
2018-08-28T16:59:21.628Z,3.70
2018-08-28T17:01:51.123Z,4.10
2018-08-28T18:23:44.176Z,4.10
2018-08-28T18:26:13.853Z,3.97
2018-08-28T18:28:44.031Z,4.10
2018-08-28T18:31:14.942Z,4.30
2018-08-28T18:33:44.966Z,3.90
2018-08-28T18:36:14.803Z,4.47
2018-08-28T18:38:44.505Z,4.33
2018-08-28T18:41:14.295Z,3.90
2018-08-28T18:43:44.050Z,4.20
2018-08-28T18:46:13.903Z,4.27
2018-08-28T18:48:43.648Z,4.20
2018-08-28T18:51:13.586Z,4.37
2018-08-28T18:53:43.749Z,4.60
2018-08-28T18:56:13.438Z,4.10
2018-08-28T18:58:43.264Z,4.10
2018-08-28T19:01:12.992Z,3.93
2018-08-28T19:03:42.884Z,3.97
2018-08-28T19:06:12.866Z,4.30
2018-08-28T19:08:42.628Z,4.10
2018-08-28T19:11:12.684Z,3.80
2018-08-28T19:13:42.444Z,4.20
2018-08-28T19:16:12.805Z,4.33
2018-08-28T19:18:42.545Z,4.00
2018-08-28T19:21:12.264Z,3.77
2018-08-28T19:23:41.864Z,4.33
2018-08-28T19:26:11.771Z,4.37
2018-08-28T19:28:41.563Z,4.33
2018-08-28T19:31:11.424Z,3.90
2018-08-28T19:33:41.044Z,4.00
2018-08-28T19:36:10.716Z,3.80
2018-08-28T19:38:40.321Z,3.90
2018-08-28T19:41:10.160Z,4.20
2018-08-28T19:43:40.108Z,4.40
2018-08-28T19:46:10.303Z,4.40
2018-08-28T19:48:39.924Z,4.43
2018-08-28T19:51:11.204Z,4.67
2018-08-28T19:53:41.180Z,4.60
2018-08-28T19:56:11.257Z,4.70
2018-08-28T19:58:41.364Z,3.97
2018-08-28T20:01:10.963Z,4.40
2018-08-28T20:03:40.667Z,4.20
2018-08-28T20:06:10.166Z,4.37
2018-08-28T20:08:39.827Z,4.70
2018-08-28T20:11:09.352Z,4.50
2018-08-28T20:13:39.224Z,4.57
2018-08-28T20:16:08.763Z,4.83
2018-08-28T20:18:38.365Z,4.30
2018-08-28T20:21:08.674Z,4.60
2018-08-28T20:23:39.024Z,4.00
2018-08-28T20:26:08.644Z,4.67
2018-08-28T20:28:44.666Z,4.07
2018-08-28T20:31:15.430Z,4.20
2018-08-28T20:33:45.049Z,4.30
2018-08-28T20:36:14.891Z,4.43
2018-08-28T20:38:44.767Z,4.80
2018-08-28T20:41:14.594Z,4.40
2018-08-28T20:43:44.733Z,4.30
2018-08-28T20:46:14.521Z,4.40
2018-08-28T20:48:44.236Z,4.77
2018-08-28T20:51:14.028Z,4.30
2018-08-28T20:53:55.050Z,4.63
2018-08-28T20:56:24.764Z,4.17
2018-08-28T20:58:54.961Z,4.30
2018-08-28T21:01:24.865Z,3.93
2018-08-28T21:03:54.645Z,4.80
2018-08-28T21:06:24.835Z,5.07
2018-08-28T21:08:54.709Z,4.27
2018-08-28T21:11:24.748Z,4.77
2018-08-28T21:13:54.690Z,4.37
2018-08-28T21:16:24.445Z,4.50
2018-08-28T21:18:54.243Z,4.67
2018-08-28T21:21:23.923Z,4.73
2018-08-28T21:23:53.843Z,4.80
2018-08-28T21:26:24.125Z,4.60
2018-08-28T21:28:54.076Z,4.67
2018-08-28T21:31:24.203Z,4.63
2018-08-28T21:33:54.224Z,4.70
2018-08-28T21:36:24.063Z,4.57
2018-08-28T21:38:55.303Z,4.93
2018-08-28T21:41:24.883Z,4.80
2018-08-28T21:43:54.703Z,4.43
2018-08-28T21:46:24.682Z,4.43
2018-08-28T21:48:54.522Z,4.13
2018-08-28T21:51:24.362Z,4.67
2018-08-28T21:53:54.201Z,4.10
2018-08-28T21:56:24.002Z,4.60
2018-08-28T21:58:54.283Z,5.00
2018-08-28T22:01:24.202Z,4.37
2018-08-28T22:03:54.192Z,4.40
2018-08-28T22:06:29.400Z,4.70
2018-08-28T22:08:59.260Z,4.10
2018-08-28T22:11:29.040Z,4.20
2018-08-28T22:13:58.641Z,4.60
2018-08-28T22:16:28.520Z,4.60
2018-08-28T22:18:59.240Z,4.20
2018-08-28T22:21:29.163Z,4.93
2018-08-28T22:23:58.821Z,5.07
2018-08-28T22:26:28.841Z,4.57
2018-08-28T22:28:58.920Z,4.73
2018-08-28T22:31:29.040Z,4.37
2018-08-28T22:33:58.662Z,4.90
2018-08-28T22:36:28.801Z,4.40
2018-08-28T22:38:58.622Z,4.70
2018-08-28T22:41:28.320Z,4.40
2018-08-28T22:43:58.204Z,3.83
2018-08-28T22:46:27.923Z,4.70
2018-08-28T22:48:57.963Z,4.73
2018-08-28T22:51:28.041Z,4.60
2018-08-28T22:53:57.768Z,5.03
2018-08-28T22:56:27.484Z,4.47
2018-08-28T22:58:58.767Z,4.77
2018-08-28T23:01:28.483Z,4.93
2018-08-28T23:03:58.822Z,4.70
2018-08-28T23:06:28.642Z,4.70
2018-08-28T23:08:58.642Z,5.07
2018-08-28T23:11:28.582Z,4.60
2018-08-28T23:14:03.202Z,4.93
2018-08-28T23:16:33.422Z,4.97
2018-08-28T23:19:03.151Z,5.00
2018-08-28T23:21:33.162Z,4.67
2018-08-28T23:24:02.862Z,4.63
2018-08-28T23:26:32.802Z,5.00
2018-08-28T23:29:02.982Z,4.83
2018-08-28T23:31:33.162Z,5.07
2018-08-28T23:34:03.222Z,5.27
2018-08-28T23:36:32.982Z,5.00
2018-08-28T23:39:03.076Z,5.50
2018-08-28T23:41:32.881Z,5.33
2018-08-28T23:44:02.561Z,5.60
2018-08-28T23:46:32.322Z,5.63
2018-08-28T23:49:02.365Z,5.43
2018-08-28T23:51:32.162Z,5.50
2018-08-28T23:54:02.422Z,5.40
2018-08-28T23:56:32.883Z,6.10
2018-08-28T23:59:02.623Z,6.53
